Hlavní strana
METAR-TAF:

METAR-TAF

Letiště :

Bangkok, Thajsko

zeměpisná šířka: 13-54-45N, zeměpisná délka: 100-36-24E, výška: 4 m

Aktuální stav počasí

Zpráva byla vytvořena před 19 minutami, v 23:00 UTC
Severní vítr 8 kt
Teplota 23°C
Vlhkost vzduchu 73%
Tlak 1015 hPa
Viditelnost 10 km a více
Žádná oblačnost pod 1500 m, nevyskytují se cumulonimby.

METAR: VTBD 132300Z 01008KT CAVOK 23/18 Q1015 NOSIG

Čas: 06:19 (23:19 UTC)

Předpověď počasí

Zpráva byla vytvořena před 6 hodinami a 19 minutami, v 17:00 UTC
Předpověď platná od 13 v 18 UTC do 14 v 24 UTC
Severní vítr 5 kt
Viditelnost 10 km a více
Skoro jasno ve výšce 3000 ft
Změna
od 14 v 02 UTC do 14 v 04 UTC
Východoseverovýchodní vítr 8 kt
Změna
od 14 v 14 UTC do 14 v 16 UTC
Severní vítr 5 kt

TAF: VTBD 131700Z 1318/1424 35005KT 9999 FEW030 BECMG 1402/1404 06008KT BECMG 1414/1416 35005KT

Stav a předpovědi počasí z více než 4 000 letišť (zprávy METAR a TAF).

Červené a žluté tečky na mapě představují dostupné meteorologické stanice.

Když kurzor umístíte na tečku, zobrazí se název stanice.

Pak kliknutím zobrazíte stav a předpověď počasí.

Chcete-li změnit mapu, kliknutím na zelené tlačítko se znaménkem +mapu přiblížíte, kliknutím na zelené tlačítko se znaménkem – mapu oddálíte a kliknutím na zelené šipky přejdete na sousední mapy.


METAR-TAF: